createdAt,value
2022-09-25T00:01:26.012Z,101156.13
2022-09-25T00:03:54.034Z,101092.97
2022-09-25T00:06:24.442Z,101162.34
2022-09-25T00:08:54.374Z,101172.03
2022-09-25T00:11:24.000Z,101136.47
2022-09-25T00:13:52.593Z,101165.78
2022-09-25T00:16:23.031Z,101150.53
2022-09-25T00:19:09.433Z,101151.41
2022-09-25T00:21:38.386Z,101157.69
2022-09-25T00:24:10.583Z,101163.75
2022-09-25T00:26:40.686Z,101167.13
2022-09-25T00:29:11.633Z,101168.75
2022-09-25T00:31:39.648Z,101169.56
2022-09-25T00:34:07.652Z,101172.09
2022-09-25T00:36:36.869Z,101176.50
2022-09-25T00:39:05.104Z,101172.19
2022-09-25T00:41:35.422Z,101169.53
2022-09-25T00:44:05.502Z,101166.75
2022-09-25T00:46:36.768Z,101172.94
2022-09-25T00:49:08.115Z,101172.84
2022-09-25T00:51:41.372Z,101172.75
2022-09-25T00:54:14.678Z,101169.09
2022-09-25T00:56:46.100Z,101165.53
2022-09-25T00:59:18.066Z,101170.78
2022-09-25T01:01:46.722Z,101165.50
2022-09-25T01:04:15.434Z,101161.94
2022-09-25T01:06:43.626Z,101160.94
2022-09-25T01:09:11.886Z,101163.56
2022-09-25T01:11:40.770Z,101167.97
2022-09-25T01:14:11.266Z,101167.97
2022-09-25T01:16:45.330Z,101170.66
2022-09-25T01:19:26.564Z,101131.47
2022-09-25T01:21:58.562Z,101167.88
2022-09-25T01:25:03.764Z,101159.81
2022-09-25T01:27:47.510Z,101168.72
2022-09-25T01:30:19.314Z,101155.59
2022-09-25T01:32:57.722Z,101171.25
2022-09-25T01:35:37.742Z,101167.69
2022-09-25T01:38:15.422Z,101150.88
2022-09-25T01:40:49.625Z,101166.66
2022-09-25T01:43:21.534Z,101160.50
2022-09-25T01:45:54.264Z,101147.06
2022-09-25T01:48:27.317Z,101161.34
2022-09-25T01:51:00.674Z,101160.41
2022-09-25T01:53:37.906Z,101124.84
2022-09-25T01:56:10.454Z,101162.16
2022-09-25T01:58:47.761Z,101163.88
2022-09-25T02:01:23.784Z,101165.53
2022-09-25T02:03:57.992Z,101149.69
2022-09-25T02:06:29.953Z,101160.97
2022-09-25T02:09:03.517Z,101147.81
2022-09-25T02:11:37.743Z,101134.34
2022-09-25T02:14:13.631Z,101153.75
2022-09-25T02:16:44.488Z,101148.41
2022-09-25T02:19:32.763Z,101131.59
2022-09-25T02:22:06.354Z,101146.56
2022-09-25T02:24:39.559Z,101139.53
2022-09-25T02:27:07.765Z,101140.38
2022-09-25T02:29:36.305Z,101136.88
2022-09-25T02:32:09.869Z,101139.53
2022-09-25T02:34:38.153Z,101119.31
2022-09-25T02:37:11.656Z,101129.16
2022-09-25T02:39:40.678Z,101049.06
2022-09-25T02:42:32.810Z,101127.28
2022-09-25T02:45:10.010Z,101090.72
2022-09-25T02:47:46.081Z,101121.09
2022-09-25T02:50:21.416Z,101110.69
2022-09-25T02:52:58.342Z,101063.31
2022-09-25T02:55:34.277Z,101113.31
2022-09-25T02:58:08.323Z,101110.69
2022-09-25T03:00:38.807Z,101107.13
2022-09-25T03:03:11.542Z,101109.72
2022-09-25T03:05:39.936Z,101108.88
2022-09-25T03:08:25.804Z,101107.03
2022-09-25T03:10:54.076Z,101111.34
2022-09-25T03:13:26.654Z,101054.44
2022-09-25T03:15:59.028Z,101110.41
2022-09-25T03:18:29.752Z,101106.88
2022-09-25T03:20:57.565Z,101107.63
2022-09-25T03:23:26.354Z,101086.16
2022-09-25T03:25:55.925Z,101108.28
2022-09-25T03:28:24.761Z,101098.28
2022-09-25T03:31:01.564Z,101101.94
2022-09-25T03:33:34.541Z,101097.44
2022-09-25T03:36:07.764Z,100970.97
2022-09-25T03:38:35.681Z,101022.34
2022-09-25T03:41:06.768Z,101102.41
2022-09-25T03:43:36.758Z,101097.06
2022-09-25T03:46:04.991Z,101099.53
2022-09-25T03:48:35.147Z,100986.31
2022-09-25T03:51:04.047Z,101088.72
2022-09-25T03:53:33.484Z,101084.16
2022-09-25T03:56:01.914Z,101088.47
2022-09-25T03:58:30.631Z,101039.31
2022-09-25T04:00:59.070Z,101053.56
2022-09-25T04:03:29.069Z,101088.19
2022-09-25T04:06:00.149Z,101036.59
2022-09-25T04:08:29.342Z,101046.34
2022-09-25T04:10:59.441Z,101082.97
2022-09-25T04:13:30.166Z,101080.28
2022-09-25T04:15:59.215Z,101081.06
2022-09-25T04:18:28.232Z,101065.94
2022-09-25T04:20:56.513Z,101075.56
2022-09-25T04:23:25.887Z,101073.75
2022-09-25T04:25:53.767Z,101071.63
2022-09-25T04:28:23.487Z,101082.28
2022-09-25T04:30:52.156Z,101080.38
2022-09-25T04:33:38.329Z,101083.22
2022-09-25T04:36:06.720Z,101074.53
2022-09-25T04:38:36.098Z,101073.63
2022-09-25T04:41:05.801Z,101070.84
2022-09-25T04:43:35.383Z,101045.28
2022-09-25T04:46:03.963Z,101059.31
2022-09-25T04:48:32.811Z,101082.31
2022-09-25T04:51:00.951Z,101078.88
2022-09-25T04:53:30.485Z,101084.88
2022-09-25T04:56:04.025Z,101070.53
2022-09-25T04:58:32.150Z,101075.97
2022-09-25T05:01:04.076Z,101078.81
2022-09-25T05:03:32.336Z,101084.88
2022-09-25T05:06:00.236Z,101071.63
2022-09-25T05:08:28.417Z,101073.63
2022-09-25T05:10:56.521Z,101076.31
2022-09-25T05:13:25.766Z,101051.53
2022-09-25T05:15:56.011Z,101072.94
2022-09-25T05:18:25.289Z,101042.94
2022-09-25T05:20:54.319Z,101067.13
2022-09-25T05:23:23.561Z,101061.94
2022-09-25T05:25:55.264Z,101054.00
2022-09-25T05:28:23.676Z,101059.53
2022-09-25T05:30:53.574Z,101062.25
2022-09-25T05:33:21.657Z,101057.16
2022-09-25T05:35:49.658Z,101059.91
2022-09-25T05:38:17.529Z,101059.19
2022-09-25T05:40:45.584Z,101056.63
2022-09-25T05:43:13.607Z,101058.50
2022-09-25T05:45:41.632Z,101064.00
2022-09-25T05:48:11.171Z,101064.09
2022-09-25T05:50:39.125Z,101051.69
2022-09-25T05:53:07.033Z,101063.50
2022-09-25T05:55:35.268Z,101053.06
2022-09-25T05:58:04.162Z,101058.59
2022-09-25T06:00:33.293Z,101009.75
2022-09-25T06:03:01.670Z,101051.78
2022-09-25T06:05:31.299Z,101059.00
2022-09-25T06:07:59.258Z,101060.91
2022-09-25T06:10:27.791Z,101040.63
2022-09-25T06:12:58.997Z,101045.44
2022-09-25T06:15:27.879Z,101042.88
2022-09-25T06:17:56.294Z,101058.13
2022-09-25T06:20:25.153Z,101058.28
2022-09-25T06:22:55.126Z,101043.34
2022-09-25T06:25:24.768Z,101055.00
2022-09-25T06:27:54.240Z,101048.00
2022-09-25T06:30:22.366Z,101002.03
2022-09-25T06:32:51.685Z,101049.19
2022-09-25T06:35:19.595Z,101048.31
2022-09-25T06:37:47.475Z,101043.91
2022-09-25T06:40:17.333Z,101048.34
2022-09-25T06:42:46.362Z,101042.44
2022-09-25T06:45:14.346Z,101047.22
2022-09-25T06:47:42.596Z,101047.53
2022-09-25T06:50:12.358Z,101047.59
2022-09-25T06:52:43.867Z,101044.09
2022-09-25T06:55:12.447Z,101040.69
2022-09-25T06:57:41.651Z,101043.44
2022-09-25T07:00:10.887Z,101031.88
2022-09-25T07:02:56.434Z,101030.16
2022-09-25T07:05:24.575Z,101039.31
2022-09-25T07:07:52.551Z,101044.84
2022-09-25T07:10:20.532Z,101041.56
2022-09-25T07:12:49.786Z,101016.06
2022-09-25T07:15:18.786Z,101018.22
2022-09-25T07:17:47.098Z,101027.19
2022-09-25T07:20:15.420Z,101022.78
2022-09-25T07:22:43.857Z,101024.34
2022-09-25T07:25:13.720Z,101035.81
2022-09-25T07:27:41.665Z,101039.34
2022-09-25T07:30:12.157Z,101043.78
2022-09-25T07:32:40.127Z,101037.81
2022-09-25T07:35:08.850Z,101038.94
2022-09-25T07:37:37.247Z,101038.22
2022-09-25T07:40:05.756Z,101034.97
2022-09-25T07:42:33.686Z,101029.03
2022-09-25T07:45:01.580Z,101036.78
2022-09-25T07:47:30.766Z,101023.97
2022-09-25T07:49:58.837Z,101012.19
2022-09-25T07:52:26.984Z,101024.53
2022-09-25T07:54:54.864Z,101020.06
2022-09-25T07:57:22.931Z,100966.00
2022-09-25T07:59:50.910Z,101010.66
2022-09-25T08:02:18.840Z,100953.88
2022-09-25T08:04:48.450Z,101015.47
2022-09-25T08:07:16.437Z,101009.50
2022-09-25T08:09:44.241Z,101021.03
2022-09-25T08:12:14.121Z,100996.25
2022-09-25T08:14:42.880Z,101007.81
2022-09-25T08:17:10.742Z,101013.25
2022-09-25T08:19:38.655Z,100987.03
2022-09-25T08:22:07.983Z,101009.50
2022-09-25T08:24:35.902Z,101011.47
2022-09-25T08:27:03.931Z,100999.28
2022-09-25T08:29:31.938Z,101004.78
2022-09-25T08:31:59.825Z,100985.38
2022-09-25T08:34:40.534Z,100997.47
2022-09-25T08:37:10.338Z,100994.03
2022-09-25T08:39:38.330Z,100976.84
2022-09-25T08:42:06.744Z,100976.22
2022-09-25T08:44:38.987Z,100984.28
2022-09-25T08:47:33.317Z,100977.31
2022-09-25T08:50:08.162Z,100980.72
2022-09-25T08:52:41.321Z,100973.50
2022-09-25T08:55:14.792Z,100973.53
2022-09-25T08:57:45.458Z,100853.53
2022-09-25T09:00:20.226Z,100928.50
2022-09-25T09:02:56.204Z,100971.41
2022-09-25T09:05:29.269Z,100966.56
2022-09-25T09:08:03.623Z,100962.06
2022-09-25T09:10:36.430Z,100958.19
2022-09-25T09:13:15.801Z,100916.84
2022-09-25T09:15:50.709Z,100944.03
2022-09-25T09:18:23.578Z,100938.75
2022-09-25T09:20:54.677Z,100923.00
2022-09-25T09:23:25.731Z,100863.06
2022-09-25T09:26:17.132Z,100928.84
2022-09-25T09:29:07.529Z,100918.13
2022-09-25T09:31:44.832Z,100929.78
2022-09-25T09:34:53.522Z,100910.06
2022-09-25T09:37:31.697Z,100912.69
2022-09-25T09:40:17.990Z,100929.88
2022-09-25T09:42:53.776Z,100878.69
2022-09-25T09:45:28.894Z,100916.38
2022-09-25T09:48:06.413Z,100912.22
2022-09-25T09:50:43.895Z,100906.28
2022-09-25T09:53:22.264Z,100902.88
2022-09-25T09:55:55.204Z,100904.19
2022-09-25T09:58:29.198Z,100893.25
2022-09-25T10:01:01.075Z,100895.72
2022-09-25T10:03:39.336Z,100896.19
2022-09-25T10:06:12.662Z,100899.91
2022-09-25T10:08:42.226Z,100900.13
2022-09-25T10:11:17.515Z,100895.75
2022-09-25T10:13:46.399Z,100896.66
2022-09-25T10:16:17.357Z,100896.63
2022-09-25T10:18:49.634Z,100897.53
2022-09-25T10:21:21.349Z,100887.66
2022-09-25T10:23:50.943Z,100882.25
2022-09-25T10:26:29.004Z,100833.81
2022-09-25T10:28:58.785Z,100885.97
2022-09-25T10:31:29.891Z,100882.47
2022-09-25T10:34:07.839Z,100878.81
2022-09-25T10:36:40.007Z,100874.16
2022-09-25T10:39:43.521Z,100869.78
2022-09-25T10:42:37.291Z,100863.75
2022-09-25T10:45:27.889Z,100851.50
2022-09-25T10:48:09.734Z,100855.91
2022-09-25T10:50:38.259Z,100860.38
2022-09-25T10:53:07.727Z,100837.34
2022-09-25T10:55:37.690Z,100845.25
2022-09-25T10:58:21.406Z,100854.91
2022-09-25T11:00:55.858Z,100811.69
2022-09-25T11:03:26.557Z,100833.50
2022-09-25T11:05:56.511Z,100845.81
2022-09-25T11:08:30.250Z,100815.53
2022-09-25T11:10:59.785Z,100829.53
2022-09-25T11:13:37.176Z,100787.38
2022-09-25T11:16:09.582Z,100824.31
2022-09-25T11:18:41.162Z,100798.06
2022-09-25T11:21:20.546Z,100792.44
2022-09-25T11:24:04.733Z,100809.22
2022-09-25T11:26:37.768Z,100774.16
2022-09-25T11:29:16.823Z,100789.28
2022-09-25T11:31:50.314Z,100806.50
2022-09-25T11:34:33.794Z,100796.91
2022-09-25T11:37:07.709Z,100790.22
2022-09-25T11:40:01.277Z,100798.44
2022-09-25T11:42:35.075Z,100793.16
2022-09-25T11:45:09.392Z,100784.22
2022-09-25T11:47:44.566Z,100773.06
2022-09-25T11:50:16.555Z,100788.06
2022-09-25T11:52:54.399Z,100786.03
2022-09-25T11:55:47.183Z,100777.75
2022-09-25T11:58:30.155Z,100778.41
2022-09-25T12:01:08.366Z,100772.38
2022-09-25T12:03:52.166Z,100755.72
2022-09-25T12:06:38.415Z,100750.28
2022-09-25T12:09:28.146Z,100754.94
2022-09-25T12:12:03.527Z,100736.38
2022-09-25T12:14:40.271Z,100736.09
2022-09-25T12:17:18.670Z,100729.94
2022-09-25T12:19:55.738Z,100736.50
2022-09-25T12:22:36.057Z,100740.66
2022-09-25T12:25:13.785Z,100735.81
2022-09-25T12:27:51.196Z,100727.63
2022-09-25T12:30:21.464Z,100726.13
2022-09-25T12:33:16.837Z,100722.16
2022-09-25T12:35:50.411Z,100709.19
2022-09-25T12:38:27.460Z,100711.09
2022-09-25T12:41:02.897Z,100709.38
2022-09-25T12:43:36.668Z,100710.09
2022-09-25T12:46:15.069Z,100693.34
2022-09-25T12:48:50.644Z,100706.19
2022-09-25T12:51:23.795Z,100698.50
2022-09-25T12:53:57.112Z,100672.59
2022-09-25T12:56:30.218Z,100668.88
2022-09-25T12:59:05.983Z,100691.00
2022-09-25T13:01:41.447Z,100683.50
2022-09-25T13:04:34.066Z,100651.78
2022-09-25T13:07:10.842Z,100677.63
2022-09-25T13:09:45.092Z,100668.06
2022-09-25T13:12:33.227Z,100664.19
2022-09-25T13:15:06.989Z,100629.09
2022-09-25T13:17:35.762Z,100652.25
2022-09-25T13:20:42.486Z,100653.81
2022-09-25T13:23:15.148Z,100636.78
2022-09-25T13:25:46.640Z,100659.66
2022-09-25T13:28:21.539Z,100631.16
2022-09-25T13:31:09.228Z,100656.25
2022-09-25T13:33:49.498Z,100652.94
2022-09-25T13:36:47.973Z,100648.78
2022-09-25T13:39:40.064Z,100649.75
2022-09-25T13:42:14.271Z,100649.88
2022-09-25T13:45:26.187Z,100631.44
2022-09-25T13:48:36.179Z,100644.72
2022-09-25T13:51:34.569Z,100620.50
2022-09-25T13:54:05.309Z,100593.22
2022-09-25T13:56:59.218Z,100611.41
2022-09-25T13:59:38.632Z,100598.09
2022-09-25T14:02:49.277Z,100591.16
2022-09-25T14:05:21.243Z,100599.53
2022-09-25T14:07:54.914Z,100554.75
2022-09-25T14:10:24.092Z,100592.09
2022-09-25T14:12:54.206Z,100562.94
2022-09-25T14:15:26.949Z,100585.03
2022-09-25T14:17:57.313Z,100572.56
2022-09-25T14:20:37.038Z,100578.66
2022-09-25T14:23:08.437Z,100570.81
2022-09-25T14:25:39.166Z,100573.44
2022-09-25T14:28:20.944Z,100530.78
2022-09-25T14:31:04.509Z,100568.88
2022-09-25T14:34:04.165Z,100561.56
2022-09-25T14:36:42.097Z,100556.44
2022-09-25T14:39:26.355Z,100552.91
2022-09-25T14:42:23.641Z,100549.84
2022-09-25T14:45:18.026Z,100553.94
2022-09-25T14:47:49.524Z,100544.41
2022-09-25T14:50:23.411Z,100543.66
2022-09-25T14:52:55.758Z,100546.09
2022-09-25T14:55:24.646Z,100548.38
2022-09-25T14:57:53.033Z,100538.81
2022-09-25T15:00:24.678Z,100542.88
2022-09-25T15:02:55.741Z,100538.81
2022-09-25T15:05:32.978Z,100532.91
2022-09-25T15:08:03.185Z,100531.56
2022-09-25T15:10:34.313Z,100502.19
2022-09-25T15:13:15.876Z,100536.91
2022-09-25T15:16:07.472Z,100517.13
2022-09-25T15:18:38.640Z,100513.75
2022-09-25T15:21:09.807Z,100540.69
2022-09-25T15:23:38.988Z,100532.44
2022-09-25T15:26:08.956Z,100517.75
2022-09-25T15:28:40.246Z,100524.16
2022-09-25T15:31:09.603Z,100529.78
2022-09-25T15:33:39.131Z,100527.34
2022-09-25T15:36:17.002Z,100522.13
2022-09-25T15:38:45.136Z,100524.88
2022-09-25T15:41:16.482Z,100511.72
2022-09-25T15:43:44.534Z,100529.41
2022-09-25T15:46:37.893Z,100520.63
2022-09-25T15:49:07.074Z,100510.94
2022-09-25T15:51:37.221Z,100518.88
2022-09-25T15:54:20.182Z,100517.13
2022-09-25T15:56:52.112Z,100518.03
2022-09-25T15:59:23.024Z,100512.75
2022-09-25T16:02:10.574Z,100498.63
2022-09-25T16:04:49.554Z,100480.09
2022-09-25T16:07:26.194Z,100513.59
2022-09-25T16:09:56.748Z,100507.41
2022-09-25T16:12:29.814Z,100503.00
2022-09-25T16:14:59.537Z,100489.72
2022-09-25T16:17:33.575Z,100472.94
2022-09-25T16:20:09.036Z,100476.44
2022-09-25T16:22:42.801Z,100489.66
2022-09-25T16:25:21.341Z,100504.63
2022-09-25T16:27:49.753Z,100357.22
2022-09-25T16:30:20.729Z,100471.00
2022-09-25T16:32:52.506Z,100495.69
2022-09-25T16:35:57.441Z,100496.53
2022-09-25T16:38:28.952Z,100495.63
2022-09-25T16:41:05.290Z,100490.31
2022-09-25T16:43:35.759Z,100494.66
2022-09-25T16:46:05.957Z,100497.25
2022-09-25T16:48:39.701Z,100492.78
2022-09-25T16:51:12.260Z,100496.19
2022-09-25T16:53:40.594Z,100496.16
2022-09-25T16:56:08.432Z,100489.09
2022-09-25T16:58:37.501Z,100497.88
2022-09-25T17:01:05.759Z,100462.53
2022-09-25T17:03:49.890Z,100443.94
2022-09-25T17:06:19.614Z,100483.66
2022-09-25T17:08:48.307Z,100467.69
2022-09-25T17:11:17.682Z,100474.66
2022-09-25T17:13:46.759Z,100466.69
2022-09-25T17:16:14.819Z,100473.69
2022-09-25T17:18:43.175Z,100486.00
2022-09-25T17:21:15.240Z,100418.78
2022-09-25T17:23:45.229Z,100454.94
2022-09-25T17:26:18.969Z,100477.84
2022-09-25T17:28:47.210Z,100471.63
2022-09-25T17:31:18.339Z,100487.53
2022-09-25T17:33:46.318Z,100482.22
2022-09-25T17:36:14.812Z,100455.72
2022-09-25T17:38:44.359Z,100456.59
2022-09-25T17:41:20.518Z,100461.00
2022-09-25T17:43:49.517Z,100474.22
2022-09-25T17:46:21.481Z,100482.94
2022-09-25T17:48:54.271Z,100478.47
2022-09-25T17:51:24.687Z,100456.38
2022-09-25T17:53:56.039Z,100470.53
2022-09-25T17:56:24.802Z,100447.47
2022-09-25T17:58:55.059Z,100412.25
2022-09-25T18:01:24.648Z,100460.75
2022-09-25T18:03:53.774Z,100458.09
2022-09-25T18:06:22.105Z,100446.63
2022-09-25T18:08:50.993Z,100420.06
2022-09-25T18:11:20.680Z,100451.84
2022-09-25T18:13:48.983Z,100450.06
2022-09-25T18:16:20.666Z,100444.78
2022-09-25T18:19:06.593Z,100427.03
2022-09-25T18:21:48.389Z,100453.47
2022-09-25T18:24:16.703Z,100443.75
2022-09-25T18:26:46.698Z,100437.63
2022-09-25T18:29:16.954Z,100440.22
2022-09-25T18:31:46.612Z,100426.06
2022-09-25T18:34:14.599Z,100435.78
2022-09-25T18:36:42.973Z,100428.72
2022-09-25T18:39:14.853Z,100416.41
2022-09-25T18:41:47.925Z,100366.94
2022-09-25T18:44:17.920Z,100417.25
2022-09-25T18:46:46.030Z,100412.81
2022-09-25T18:49:14.161Z,100362.44
2022-09-25T18:51:42.271Z,100412.75
2022-09-25T18:54:13.808Z,100404.78
2022-09-25T18:56:41.994Z,100399.47
2022-09-25T18:59:11.459Z,100417.97
2022-09-25T19:01:41.063Z,100410.94
2022-09-25T19:04:10.014Z,100412.66
2022-09-25T19:06:38.159Z,100394.22
2022-09-25T19:09:06.071Z,100380.94
2022-09-25T19:11:34.015Z,100386.19
2022-09-25T19:14:04.950Z,100404.69
2022-09-25T19:16:37.991Z,100402.94
2022-09-25T19:19:06.350Z,100404.63
2022-09-25T19:21:34.272Z,100398.44
2022-09-25T19:24:02.785Z,100390.50
2022-09-25T19:26:31.163Z,100394.88
2022-09-25T19:28:59.079Z,100386.97
2022-09-25T19:31:28.238Z,100359.63
2022-09-25T19:33:58.125Z,100385.19
2022-09-25T19:36:30.278Z,100389.53
2022-09-25T19:38:59.654Z,100341.03
2022-09-25T19:41:29.904Z,100347.31
2022-09-25T19:44:00.459Z,100364.94
2022-09-25T19:46:29.771Z,100364.03
2022-09-25T19:48:59.556Z,100350.78
2022-09-25T19:51:27.893Z,100356.09
2022-09-25T19:53:55.847Z,100341.97
2022-09-25T19:56:24.843Z,100220.97
2022-09-25T19:58:52.826Z,100344.69
2022-09-25T20:01:23.231Z,100299.63
2022-09-25T20:03:51.435Z,100339.41
2022-09-25T20:06:21.038Z,100339.41
2022-09-25T20:08:48.903Z,100312.94
2022-09-25T20:11:18.924Z,100326.19
2022-09-25T20:13:48.222Z,100325.31
2022-09-25T20:16:18.146Z,100257.38
2022-09-25T20:18:49.067Z,100318.28
2022-09-25T20:21:17.723Z,100253.72
2022-09-25T20:23:51.086Z,100289.16
2022-09-25T20:26:20.008Z,100312.94
2022-09-25T20:28:48.082Z,100312.06
2022-09-25T20:31:16.929Z,100270.63
2022-09-25T20:33:45.016Z,100312.97
2022-09-25T20:36:15.247Z,100307.66
2022-09-25T20:38:44.350Z,100303.25
2022-09-25T20:41:14.477Z,100298.69
2022-09-25T20:43:44.177Z,100305.81
2022-09-25T20:46:14.076Z,100300.56
2022-09-25T20:48:45.655Z,100310.16
2022-09-25T20:51:16.175Z,100302.28
2022-09-25T20:53:44.543Z,100306.66
2022-09-25T20:56:15.977Z,100297.88
2022-09-25T20:58:47.386Z,100296.13
2022-09-25T21:01:18.943Z,100298.75
2022-09-25T21:03:49.354Z,100303.09
2022-09-25T21:06:18.525Z,100293.47
2022-09-25T21:08:47.398Z,100244.97
2022-09-25T21:11:16.706Z,100287.34
2022-09-25T21:13:44.533Z,100280.34
2022-09-25T21:16:14.325Z,100285.59
2022-09-25T21:18:43.539Z,100287.34
2022-09-25T21:21:13.893Z,100274.19
2022-09-25T21:23:43.209Z,100273.31
2022-09-25T21:26:13.717Z,100276.81
2022-09-25T21:28:43.943Z,100266.28
2022-09-25T21:31:14.563Z,100260.03
2022-09-25T21:33:42.806Z,100262.72
2022-09-25T21:36:11.338Z,100259.22
2022-09-25T21:38:40.912Z,100223.09
2022-09-25T21:41:10.650Z,100252.25
2022-09-25T21:43:39.041Z,100244.41
2022-09-25T21:46:13.072Z,100250.56
2022-09-25T21:48:44.885Z,100251.50
2022-09-25T21:51:14.727Z,100240.16
2022-09-25T21:53:42.875Z,100183.72
2022-09-25T21:56:12.267Z,100182.94
2022-09-25T21:58:40.603Z,100231.56
2022-09-25T22:01:12.764Z,100234.22
2022-09-25T22:03:42.567Z,100228.13
2022-09-25T22:06:12.484Z,100226.41
2022-09-25T22:08:42.936Z,100187.66
2022-09-25T22:11:12.281Z,100210.59
2022-09-25T22:13:42.066Z,100214.97
2022-09-25T22:16:15.601Z,100213.19
2022-09-25T22:18:45.497Z,100213.16
2022-09-25T22:21:14.553Z,100211.38
2022-09-25T22:23:43.393Z,100204.34
2022-09-25T22:26:12.067Z,100213.97
2022-09-25T22:28:39.993Z,100203.47
2022-09-25T22:31:09.672Z,100201.69
2022-09-25T22:33:39.391Z,100197.28
2022-09-25T22:36:09.382Z,100192.91
2022-09-25T22:38:37.967Z,100173.50
2022-09-25T22:41:07.715Z,100175.28
2022-09-25T22:43:36.221Z,100196.38
2022-09-25T22:46:04.954Z,100177.00
2022-09-25T22:48:33.040Z,100186.78
2022-09-25T22:51:04.169Z,100180.66
2022-09-25T22:53:34.513Z,100182.47
2022-09-25T22:56:10.467Z,100136.69
2022-09-25T22:58:38.516Z,100179.06
2022-09-25T23:01:08.375Z,100182.59
2022-09-25T23:03:36.395Z,100187.84
2022-09-25T23:06:06.001Z,100180.00
2022-09-25T23:08:34.006Z,100164.22
2022-09-25T23:11:07.522Z,100166.03
2022-09-25T23:13:37.068Z,100177.44
2022-09-25T23:16:07.059Z,100188.88
2022-09-25T23:18:36.132Z,100187.13
2022-09-25T23:21:06.496Z,100169.47
2022-09-25T23:23:34.366Z,100178.16
2022-09-25T23:26:06.254Z,100168.34
2022-09-25T23:28:35.266Z,100090.66
2022-09-25T23:31:11.719Z,100157.56
2022-09-25T23:33:40.847Z,100166.13
2022-09-25T23:36:12.698Z,100155.50
2022-09-25T23:38:40.950Z,100140.41
2022-09-25T23:41:16.322Z,100143.94
2022-09-25T23:43:45.187Z,100138.59
2022-09-25T23:46:13.991Z,100108.63
2022-09-25T23:48:42.049Z,100124.47
2022-09-25T23:51:11.929Z,100126.19
2022-09-25T23:53:40.887Z,100068.03
2022-09-25T23:56:09.995Z,100085.75
2022-09-25T23:58:37.941Z,100114.69
